Time;durP1;ratioP1;P1;durP2;ratioP2;P2;SDS_P1;SDS_P2;PMS_P1;PMS_P2;Temp;Humidity;BMP_temperature;BMP_pressure;BME280_temperature;BME280_humidity;BME280_pressure;Samples;Min_cycle;Max_cycle;Signal;HPM_P1;HPM_P2
2022/06/02 00:00:26;;;;;;;11.65;7.80;;;;;;;14.31;68.99;98764.39;2306610;77;20925;-80
2022/06/02 00:03:26;;;;;;;8.45;6.37;;;;;;;14.34;68.77;98769.63;2306427;77;20965;-81
2022/06/02 00:06:27;;;;;;;6.85;5.60;;;;;;;14.37;68.66;98772.69;2306712;77;20985;-81
2022/06/02 00:09:27;;;;;;;15.03;5.83;;;;;;;14.41;68.62;98769.16;2306344;77;20937;-80
2022/06/02 00:12:28;;;;;;;6.10;5.20;;;;;;;14.43;68.50;98774.00;2306389;77;20945;-80
2022/06/02 00:15:28;;;;;;;7.92;5.55;;;;;;;14.42;68.49;98758.69;2305808;77;21328;-81
2022/06/02 00:18:29;;;;;;;9.73;5.45;;;;;;;14.42;68.37;98772.22;2306226;77;20902;-80
2022/06/02 00:21:29;;;;;;;10.82;6.83;;;;;;;14.41;68.32;98773.98;2305560;77;20965;-80
2022/06/02 00:24:29;;;;;;;10.03;6.12;;;;;;;14.42;68.29;98773.53;2305916;77;21312;-80
2022/06/02 00:27:30;;;;;;;7.20;5.83;;;;;;;14.41;68.17;98767.85;2306353;77;20901;-80
2022/06/02 00:30:30;;;;;;;9.23;5.83;;;;;;;14.41;68.24;98780.55;2306019;77;20972;-80
2022/06/02 00:33:30;;;;;;;9.13;5.70;;;;;;;14.41;68.22;98784.48;2305946;77;20925;-80
2022/06/02 00:36:31;;;;;;;9.00;6.12;;;;;;;14.42;68.19;98794.14;2306415;77;20893;-80
2022/06/02 00:39:31;;;;;;;12.20;6.30;;;;;;;14.44;68.19;98796.31;2306148;77;21308;-80
2022/06/02 00:42:32;;;;;;;8.85;6.08;;;;;;;14.44;68.17;98785.81;2306284;77;20980;-81
2022/06/02 00:45:32;;;;;;;26.25;8.33;;;;;;;14.44;68.15;98781.00;2302825;77;20962;-82
2022/06/02 00:48:34;;;;;;;14.23;6.58;;;;;;;14.45;68.32;98777.05;2292147;78;20922;-82
2022/06/02 00:51:33;;;;;;;14.05;7.53;;;;;;;14.47;68.32;98780.55;2291523;77;20949;-81
2022/06/02 00:57:52;;;;;;;13.45;6.20;;;;;;;14.49;69.25;98788.42;2292386;78;21329;-82
2022/06/02 01:00:53;;;;;;;10.55;6.42;;;;;;;14.52;68.87;98802.41;2292391;77;20966;-81
2022/06/02 01:03:53;;;;;;;11.75;6.30;;;;;;;14.52;69.01;98805.48;2292617;77;20917;-81
2022/06/02 01:06:53;;;;;;;10.55;6.00;;;;;;;14.52;69.15;98815.98;2291922;77;20898;-82
2022/06/02 01:09:54;;;;;;;18.98;5.97;;;;;;;14.53;69.09;98828.23;2291803;77;20949;-81
2022/06/02 01:12:54;;;;;;;7.53;5.95;;;;;;;14.58;69.27;98861.92;2292252;77;20906;-79
2022/06/02 01:15:55;;;;;;;7.58;6.03;;;;;;;14.58;71.15;98961.30;2292385;78;21305;-81
2022/06/02 01:18:55;;;;;;;8.30;6.12;;;;;;;14.44;73.55;98966.15;2292135;77;20910;-82
2022/06/02 01:21:56;;;;;;;8.13;6.30;;;;;;;14.28;74.49;98977.08;2294497;77;20867;-82
2022/06/02 01:24:56;;;;;;;10.65;5.85;;;;;;;14.14;74.93;98969.66;2293271;78;21330;-81
2022/06/02 01:27:57;;;;;;;7.00;6.30;;;;;;;14.01;75.59;98968.34;2292033;77;20936;-81
2022/06/02 01:30:57;;;;;;;8.90;6.97;;;;;;;13.93;76.79;98958.28;2291621;77;21036;-80
2022/06/02 01:33:57;;;;;;;8.98;6.40;;;;;;;13.90;77.14;98946.47;2291504;77;20917;-81
2022/06/02 01:36:58;;;;;;;7.33;6.50;;;;;;;13.86;77.94;98937.25;2290818;77;21075;-82
2022/06/02 01:39:58;;;;;;;24.15;14.18;;;;;;;13.80;78.45;98936.81;2291737;77;21003;-81
2022/06/02 01:42:59;;;;;;;8.83;7.03;;;;;;;13.76;79.32;98938.12;2291286;77;20922;-81
2022/06/02 01:45:59;;;;;;;13.50;7.20;;;;;;;13.73;79.96;98935.06;2289843;77;20962;-82
2022/06/02 01:48:59;;;;;;;10.08;6.35;;;;;;;13.71;80.21;98925.87;2284726;78;20942;-82
2022/06/02 01:52:00;;;;;;;7.00;6.30;;;;;;;13.67;80.44;98907.52;2284868;78;20946;-82
2022/06/02 01:55:00;;;;;;;12.65;6.97;;;;;;;13.62;80.82;98910.14;2284600;77;20977;-82
2022/06/02 01:58:00;;;;;;;8.50;6.65;;;;;;;13.57;81.81;98909.70;2283899;78;21340;-81
2022/06/02 02:01:01;;;;;;;8.58;7.25;;;;;;;13.56;81.76;98910.57;2283666;78;20941;-82
2022/06/02 02:04:01;;;;;;;10.43;6.72;;;;;;;13.55;82.12;98915.38;2283282;78;20982;-80
2022/06/02 02:07:02;;;;;;;22.13;15.58;;;;;;;13.49;82.15;98913.63;2283853;77;21002;-81
2022/06/02 02:10:02;;;;;;;12.35;10.50;;;;;;;13.50;83.01;98926.30;2284518;78;20923;-80
2022/06/02 02:13:03;;;;;;;12.53;8.30;;;;;;;13.55;83.21;98925.87;2284493;78;21289;-81
2022/06/02 02:16:03;;;;;;;10.00;7.58;;;;;;;13.58;83.27;98925.87;2285051;78;20922;-82
2022/06/02 02:19:03;;;;;;;11.28;7.35;;;;;;;13.59;83.32;98931.12;2285226;77;20974;-81
2022/06/02 02:22:04;;;;;;;11.55;7.22;;;;;;;13.58;83.27;98928.06;2285134;78;20925;-81
2022/06/02 02:25:07;;;;;;;13.55;8.80;;;;;;;13.57;83.52;98930.67;2285379;78;20961;-82
2022/06/02 02:28:07;;;;;;;16.25;9.50;;;;;;;13.59;83.82;98938.11;2284962;78;20930;-82
2022/06/02 02:31:07;;;;;;;15.08;9.13;;;;;;;13.64;84.02;98936.37;2285310;77;20950;-82
2022/06/02 02:34:08;;;;;;;10.50;8.40;;;;;;;13.65;84.12;98950.80;2285219;77;21001;-82
2022/06/02 02:37:11;;;;;;;13.72;8.70;;;;;;;13.66;84.25;98958.23;2285030;78;20934;-82
2022/06/02 02:40:11;;;;;;;11.97;9.10;;;;;;;13.65;84.15;98959.10;2284999;78;21376;-82
2022/06/02 02:43:12;;;;;;;9.73;8.70;;;;;;;13.65;84.32;98957.36;2286948;77;20981;-82
2022/06/02 02:46:13;;;;;;;10.08;8.50;;;;;;;13.63;84.32;98951.67;2285696;77;20966;-81
2022/06/02 02:49:13;;;;;;;12.20;8.43;;;;;;;13.65;84.90;98951.23;2284840;78;20916;-83
2022/06/02 02:52:13;;;;;;;9.13;8.15;;;;;;;13.64;84.69;98950.80;2286197;77;20945;-81
2022/06/02 02:55:13;;;;;;;11.55;9.00;;;;;;;13.60;84.41;98949.05;2284783;77;20926;-83
2022/06/02 02:58:14;;;;;;;12.15;9.30;;;;;;;13.60;84.84;98949.92;2285146;78;20964;-82
2022/06/02 03:01:14;;;;;;;11.88;9.03;;;;;;;13.61;84.71;98945.11;2285301;77;20922;-83
2022/06/02 03:04:14;;;;;;;11.10;8.80;;;;;;;13.62;84.91;98943.36;2286474;77;21305;-81
2022/06/02 03:07:15;;;;;;;16.32;10.95;;;;;;;13.64;84.81;98941.61;2285219;77;20915;-82
2022/06/02 03:10:15;;;;;;;22.90;13.65;;;;;;;13.62;84.99;98934.18;2284853;78;20957;-82
2022/06/02 03:13:16;;;;;;;11.68;10.48;;;;;;;13.64;85.19;98933.75;2284639;78;20886;-81
2022/06/02 03:16:16;;;;;;;19.55;10.75;;;;;;;13.69;85.22;98941.18;2285165;78;20926;-82
2022/06/02 03:19:18;;;;;;;16.17;11.12;;;;;;;13.70;85.14;98937.69;2284703;78;21107;-82
2022/06/02 03:22:18;;;;;;;12.90;9.93;;;;;;;13.73;85.40;98939.00;2284828;78;20936;-81
2022/06/02 03:25:19;;;;;;;17.90;9.65;;;;;;;13.77;85.28;98935.94;2283106;78;20978;-82
2022/06/02 03:28:19;;;;;;;12.85;10.20;;;;;;;13.78;85.28;98940.31;2284459;77;21048;-83
2022/06/02 03:31:20;;;;;;;13.60;9.43;;;;;;;13.75;85.19;98947.74;2282752;78;21363;-81
2022/06/02 03:34:20;;;;;;;11.20;9.85;;;;;;;13.75;85.29;98949.06;2281871;77;21002;-81
2022/06/02 03:37:20;;;;;;;11.70;9.38;;;;;;;13.77;85.34;98949.94;2282514;77;20954;-81
2022/06/02 03:40:22;;;;;;;12.00;10.30;;;;;;;13.83;85.67;98947.75;2283901;78;21348;-80
2022/06/02 03:43:21;;;;;;;12.07;9.83;;;;;;;13.84;85.77;98946.88;2285351;78;20942;-80
2022/06/02 03:46:21;;;;;;;13.05;9.85;;;;;;;13.83;85.67;98943.38;2266937;77;20967;-80
2022/06/02 03:49:22;;;;;;;13.80;10.23;;;;;;;13.83;86.03;98942.06;2228648;80;20924;-80
2022/06/02 03:52:22;;;;;;;14.43;10.72;;;;;;;13.85;86.06;98942.94;2229043;80;21003;-82
2022/06/02 03:55:23;;;;;;;11.40;10.30;;;;;;;13.88;86.10;98940.34;2229362;80;20978;-80
2022/06/02 03:58:23;;;;;;;12.37;11.05;;;;;;;13.92;86.10;98942.09;2229989;80;21007;-81
2022/06/02 04:01:23;;;;;;;11.65;10.40;;;;;;;13.93;86.15;98937.29;2230335;80;20971;-81
2022/06/02 04:04:24;;;;;;;15.15;12.07;;;;;;;13.95;86.07;98934.23;2230703;80;20928;-82
2022/06/02 04:07:27;;;;;;;12.80;11.50;;;;;;;13.96;86.09;98927.23;2229946;80;21299;-81
2022/06/02 04:10:27;;;;;;;12.53;11.22;;;;;;;13.97;86.21;98926.35;2229595;80;21011;-81
2022/06/02 04:13:40;;;;;;;12.63;11.35;;;;;;;14.00;86.30;98919.79;2230210;80;20920;-81
2022/06/02 04:16:40;;;;;;;13.05;11.85;;;;;;;14.07;86.57;98918.03;2228486;80;20951;-82
2022/06/02 04:23:00;;;;;;;13.70;11.63;;;;;;;14.20;86.42;98912.77;2228554;80;21906;-80
2022/06/02 04:26:00;;;;;;;14.70;12.35;;;;;;;14.29;86.22;98914.50;2227947;80;20994;-79
2022/06/02 04:29:00;;;;;;;13.32;11.63;;;;;;;14.34;86.17;98911.42;2227265;80;20994;-83
2022/06/02 04:32:01;;;;;;;15.43;13.10;;;;;;;14.39;86.16;98912.73;2226807;80;21058;-82
2022/06/02 04:35:01;;;;;;;16.93;12.85;;;;;;;14.45;86.26;98905.74;2226391;80;20943;-83
2022/06/02 04:38:01;;;;;;;16.45;14.47;;;;;;;14.53;86.41;98905.28;2228011;80;21937;-83
2022/06/02 04:41:02;;;;;;;19.32;14.68;;;;;;;14.63;86.62;98916.19;2227880;80;20995;-84
2022/06/02 04:44:02;;;;;;;18.50;13.85;;;;;;;14.75;86.33;98920.56;2227546;80;21043;-83
2022/06/02 04:47:05;;;;;;;24.07;18.25;;;;;;;14.83;85.97;98929.29;2255877;78;21383;-82
2022/06/02 04:50:07;;;;;;;26.05;19.98;;;;;;;14.92;85.76;98929.70;2254865;78;21008;-82
2022/06/02 04:53:05;;;;;;;25.48;18.92;;;;;;;14.94;85.15;98926.62;2287716;77;20980;-83
2022/06/02 04:56:07;;;;;;;29.20;18.85;;;;;;;14.94;85.00;98934.06;2287812;77;21021;-84
2022/06/02 04:59:08;;;;;;;21.57;15.93;;;;;;;14.95;85.26;98931.87;2288106;77;21825;-83
2022/06/02 05:02:07;;;;;;;22.15;17.17;;;;;;;15.02;85.42;98935.78;2288497;77;20988;-82
2022/06/02 05:05:07;;;;;;;20.32;14.70;;;;;;;15.08;85.36;98928.74;2289057;77;20969;-82
2022/06/02 05:08:07;;;;;;;22.20;17.15;;;;;;;15.15;85.41;98930.90;2288917;77;21055;-81
2022/06/02 05:11:08;;;;;;;19.62;16.23;;;;;;;15.23;84.77;98935.23;2289075;77;21012;-82
2022/06/02 05:14:08;;;;;;;14.58;13.08;;;;;;;15.38;84.69;98939.53;2288613;77;20950;-84
2022/06/02 05:17:10;;;;;;;10.82;9.73;;;;;;;15.53;84.44;98937.25;2288819;78;21005;-83
2022/06/02 05:20:11;;;;;;;12.25;11.15;;;;;;;15.75;83.48;98938.91;2289194;77;20997;-82
2022/06/02 05:23:11;;;;;;;10.30;9.10;;;;;;;15.96;83.24;98935.68;2288701;77;21398;-83
2022/06/02 05:26:12;;;;;;;12.13;10.90;;;;;;;16.23;82.84;98940.26;2287783;77;21559;-84
2022/06/02 05:29:12;;;;;;;14.53;12.82;;;;;;;16.48;82.30;98947.51;2287822;77;21023;-83
2022/06/02 05:32:12;;;;;;;12.95;11.57;;;;;;;16.63;82.03;98940.33;2287840;77;21061;-83
2022/06/02 05:35:13;;;;;;;12.70;11.50;;;;;;;16.65;81.30;98952.63;2287703;77;20906;-84
2022/06/02 05:38:13;;;;;;;13.48;12.18;;;;;;;16.77;80.83;98948.98;2287651;77;21043;-84
2022/06/02 05:41:14;;;;;;;9.98;8.10;;;;;;;16.96;79.97;98950.52;2289860;77;21355;-83
2022/06/02 05:44:14;;;;;;;12.45;10.90;;;;;;;17.09;79.60;98953.43;2289463;77;20950;-82
2022/06/02 05:47:14;;;;;;;10.55;9.65;;;;;;;17.26;78.93;98959.80;2295632;77;20984;-83
2022/06/02 05:50:15;;;;;;;11.33;10.13;;;;;;;17.42;77.96;98956.55;2303290;77;21471;-84
2022/06/02 05:53:15;;;;;;;11.85;10.85;;;;;;;17.47;77.86;98962.63;2304332;77;21004;-84
2022/06/02 05:56:16;;;;;;;11.15;10.00;;;;;;;17.60;77.68;98956.73;2303977;77;20945;-84
2022/06/02 05:59:18;;;;;;;9.50;7.80;;;;;;;17.71;76.73;98962.31;2304127;77;21446;-83
2022/06/02 06:02:16;;;;;;;12.23;7.47;;;;;;;17.90;75.87;98963.34;2303640;77;21031;-83
2022/06/02 06:05:17;;;;;;;9.80;6.05;;;;;;;18.10;75.38;98967.41;2303148;77;20941;-83
2022/06/02 06:08:17;;;;;;;6.85;5.72;;;;;;;18.34;74.15;98972.77;2302869;77;20981;-82
2022/06/02 06:11:17;;;;;;;7.80;5.60;;;;;;;18.40;73.35;98968.69;2302721;77;20988;-82
2022/06/02 06:14:18;;;;;;;9.83;5.20;;;;;;;18.42;72.93;98972.63;2303363;77;20976;-83
2022/06/02 06:17:18;;;;;;;9.58;5.85;;;;;;;18.58;72.57;98974.09;2302824;77;20910;-83
2022/06/02 06:20:19;;;;;;;7.28;5.90;;;;;;;18.59;71.94;98979.80;2304722;77;21001;-83
2022/06/02 06:23:20;;;;;;;7.42;5.42;;;;;;;18.55;71.55;98983.85;2304402;77;21007;-83
2022/06/02 06:26:19;;;;;;;9.63;6.10;;;;;;;18.41;71.91;98990.70;2304613;77;20980;-83
2022/06/02 06:29:20;;;;;;;7.00;5.47;;;;;;;18.56;72.04;98989.56;2305039;77;20961;-83
2022/06/02 06:32:20;;;;;;;6.55;5.95;;;;;;;18.48;71.41;98996.75;2305233;77;21039;-83
2022/06/02 06:35:21;;;;;;;8.28;6.08;;;;;;;18.32;70.86;98994.37;2303242;77;21395;-82
2022/06/02 06:38:21;;;;;;;7.20;6.10;;;;;;;18.25;70.84;99011.68;2303728;77;21017;-82
2022/06/02 06:41:21;;;;;;;5.60;5.08;;;;;;;18.30;71.15;99012.03;2303926;77;20945;-82
2022/06/02 06:44:22;;;;;;;6.20;4.75;;;;;;;18.35;70.57;99003.58;2303291;77;20964;-82
2022/06/02 06:47:22;;;;;;;5.92;5.42;;;;;;;18.55;70.32;99006.32;2297556;77;20996;-81
2022/06/02 06:50:23;;;;;;;6.42;5.78;;;;;;;18.64;71.25;99008.83;2288306;77;22043;-82
2022/06/02 06:53:23;;;;;;;6.55;4.85;;;;;;;18.64;69.93;99023.38;2289210;77;21037;-79
2022/06/02 06:56:23;;;;;;;5.72;5.22;;;;;;;18.48;70.32;99025.83;2287749;77;20949;-81
2022/06/02 06:59:24;;;;;;;6.47;5.28;;;;;;;18.31;71.03;99031.40;2288679;77;20969;-81
2022/06/02 07:02:24;;;;;;;6.42;5.83;;;;;;;18.15;71.01;99043.95;2288641;77;20935;-80
2022/06/02 07:05:25;;;;;;;9.23;7.12;;;;;;;18.04;71.41;99051.16;2287960;77;20918;-81
2022/06/02 07:08:25;;;;;;;8.83;7.37;;;;;;;18.13;71.61;99051.02;2288061;77;20910;-81
2022/06/02 07:14:44;;;;;;;14.18;12.73;;;;;;;18.35;71.00;99051.14;2287708;78;20992;-82
2022/06/02 07:17:45;;;;;;;12.73;9.53;;;;;;;18.40;70.37;99052.39;2287930;77;20973;-79
2022/06/02 07:20:46;;;;;;;14.28;9.75;;;;;;;18.44;69.09;99058.92;2288092;77;21037;-81
2022/06/02 07:23:45;;;;;;;11.80;10.60;;;;;;;18.71;68.36;99064.22;2288248;77;21392;-81
2022/06/02 07:26:46;;;;;;;11.65;9.23;;;;;;;19.31;66.84;99068.44;2288569;77;21017;-80
2022/06/02 07:29:46;;;;;;;12.05;10.90;;;;;;;19.17;66.44;99067.83;2288584;77;21475;-80
2022/06/02 07:32:47;;;;;;;9.93;9.08;;;;;;;19.36;66.62;99074.51;2289429;78;20961;-80
2022/06/02 07:35:47;;;;;;;9.45;8.08;;;;;;;19.29;64.20;99074.20;2288644;77;21036;-82
2022/06/02 07:38:47;;;;;;;9.43;8.38;;;;;;;19.47;64.34;99073.84;2289058;77;20973;-81
2022/06/02 07:41:48;;;;;;;9.70;7.95;;;;;;;19.33;64.65;99078.53;2289738;77;21013;-82
2022/06/02 07:44:48;;;;;;;9.78;7.87;;;;;;;19.09;65.26;99091.34;2289668;77;20898;-81
2022/06/02 07:47:49;;;;;;;9.83;8.10;;;;;;;18.90;64.13;99105.77;2296087;77;21382;-80
2022/06/02 07:50:49;;;;;;;6.85;5.67;;;;;;;18.78;64.67;99105.98;2302790;77;21017;-81
2022/06/02 07:53:52;;;;;;;9.70;5.97;;;;;;;18.52;63.64;99124.87;2303846;77;21048;-80
2022/06/02 07:56:53;;;;;;;8.58;6.35;;;;;;;18.05;63.18;99129.51;2304068;77;20976;-84
2022/06/02 07:59:55;;;;;;;6.37;5.77;;;;;;;17.82;64.03;99137.73;2304619;77;21016;-82
2022/06/02 08:02:56;;;;;;;17.07;6.55;;;;;;;17.87;64.47;99130.63;2304579;77;21191;-81
2022/06/02 08:05:56;;;;;;;5.55;5.05;;;;;;;17.91;64.39;99134.10;2303791;77;21344;-84
2022/06/02 08:08:57;;;;;;;7.22;5.25;;;;;;;17.73;64.88;99144.00;2303056;77;20925;-81
2022/06/02 08:11:57;;;;;;;285.60;16.23;;;;;;;17.70;64.58;99149.33;2302983;77;21000;-82
2022/06/02 08:14:58;;;;;;;5.37;4.40;;;;;;;17.78;63.43;99159.79;2302167;77;20996;-81
2022/06/02 08:17:59;;;;;;;4.67;4.20;;;;;;;17.95;63.30;99170.14;2302046;77;21063;-82
2022/06/02 08:20:59;;;;;;;4.45;4.05;;;;;;;18.36;62.82;99176.22;2302842;77;21032;-82
2022/06/02 08:24:00;;;;;;;5.80;4.05;;;;;;;18.47;61.23;99184.87;2303857;77;20988;-81
2022/06/02 08:27:00;;;;;;;3.62;2.85;;;;;;;18.56;61.06;99176.80;2302755;77;20973;-81
2022/06/02 08:30:00;;;;;;;5.23;3.63;;;;;;;18.56;60.99;99174.16;2302884;77;20913;-82
2022/06/02 08:33:03;;;;;;;6.35;2.92;;;;;;;18.29;60.76;99193.94;2302577;77;21000;-83
2022/06/02 08:36:04;;;;;;;5.90;2.57;;;;;;;18.33;59.80;99197.41;2303727;77;21024;-82
2022/06/02 08:39:04;;;;;;;4.72;2.45;;;;;;;18.52;60.42;99203.31;2301983;77;20992;-80
2022/06/02 08:42:05;;;;;;;3.10;2.15;;;;;;;18.52;59.05;99213.44;2302905;77;21004;-81
2022/06/02 08:45:05;;;;;;;4.08;2.60;;;;;;;18.81;59.84;99210.84;2302070;77;21398;-78
2022/06/02 08:48:05;;;;;;;3.17;2.40;;;;;;;18.98;57.76;99214.09;2301156;77;21060;-80
2022/06/02 08:51:06;;;;;;;7.05;2.60;;;;;;;19.17;56.78;99214.69;2301473;77;21036;-80
2022/06/02 08:54:06;;;;;;;2.45;2.22;;;;;;;19.38;54.86;99214.31;2301611;77;21411;-80
2022/06/02 08:57:07;;;;;;;2.90;2.62;;;;;;;19.52;56.06;99201.73;2301248;77;20968;-79
2022/06/02 09:00:07;;;;;;;6.60;2.70;;;;;;;19.70;54.92;99200.06;2303109;77;21056;-79
2022/06/02 09:03:08;;;;;;;3.70;2.67;;;;;;;19.87;54.41;99207.67;2303988;77;21407;-82
2022/06/02 09:06:08;;;;;;;4.17;2.70;;;;;;;20.01;54.03;99206.98;2303161;77;20921;-84
2022/06/02 09:09:08;;;;;;;4.15;2.90;;;;;;;20.04;53.96;99215.31;2302047;77;21998;-83
2022/06/02 09:12:09;;;;;;;4.62;3.22;;;;;;;20.01;54.83;99212.73;2302605;77;21375;-85
2022/06/02 09:15:12;;;;;;;5.37;3.00;;;;;;;19.83;54.41;99210.42;2302980;77;20929;-84
2022/06/02 09:18:10;;;;;;;4.72;3.65;;;;;;;19.76;55.25;99208.80;2302974;77;20936;-83
2022/06/02 09:21:10;;;;;;;4.28;3.20;;;;;;;19.56;54.85;99210.05;2303506;77;21427;-83
2022/06/02 09:24:10;;;;;;;5.80;3.30;;;;;;;19.75;54.44;99212.34;2302918;77;21025;-82
2022/06/02 09:27:11;;;;;;;3.72;2.62;;;;;;;19.88;55.27;99208.09;2302339;77;21016;-81
2022/06/02 09:30:12;;;;;;;4.65;2.90;;;;;;;19.99;53.95;99222.48;2302471;77;20909;-81
2022/06/02 09:36:33;;;;;;;9.03;3.60;;;;;;;20.31;53.58;99211.21;2302362;77;20992;-80
2022/06/02 09:39:34;;;;;;;4.33;3.70;;;;;;;20.61;52.43;99218.52;2303012;77;20949;-81
2022/06/02 09:42:35;;;;;;;9.30;4.15;;;;;;;20.84;52.88;99222.00;2303688;77;20957;-82
2022/06/02 09:45:35;;;;;;;5.95;3.40;;;;;;;20.48;52.84;99222.36;2303186;77;21371;-80
2022/06/02 09:48:35;;;;;;;4.92;3.50;;;;;;;20.54;50.69;99227.52;2296054;77;20953;-81
2022/06/02 09:51:36;;;;;;;6.35;3.83;;;;;;;20.70;51.86;99217.44;2289095;77;20965;-82
2022/06/02 09:54:36;;;;;;;3.40;3.10;;;;;;;21.09;51.80;99209.46;2289650;77;21695;-82
2022/06/02 10:00:55;;;;;;;2.92;2.83;;;;;;;21.25;49.78;99210.85;2288955;78;20992;-80
2022/06/02 10:03:56;;;;;;;4.03;3.50;;;;;;;21.45;48.98;99203.24;2288338;77;21348;-82
2022/06/02 10:06:58;;;;;;;3.35;3.00;;;;;;;21.68;49.46;99205.77;2287370;77;21024;-81
2022/06/02 10:09:57;;;;;;;3.52;3.25;;;;;;;21.77;48.47;99213.48;2288684;77;20969;-82
2022/06/02 10:13:00;;;;;;;5.20;3.67;;;;;;;21.80;47.90;99205.43;2288496;77;21036;-80
2022/06/02 10:16:03;;;;;;;3.60;3.40;;;;;;;21.90;47.69;99210.44;2289039;77;21008;-82
2022/06/02 10:19:01;;;;;;;5.53;3.90;;;;;;;21.37;48.00;99210.99;2289016;78;20941;-82
2022/06/02 10:22:01;;;;;;;5.55;3.77;;;;;;;20.99;49.87;99215.00;2289676;77;21033;-82
2022/06/02 10:25:01;;;;;;;6.55;3.60;;;;;;;21.44;49.37;99206.81;2289225;77;21467;-82
2022/06/02 10:28:02;;;;;;;3.60;3.30;;;;;;;21.84;49.29;99213.73;2289664;77;20945;-81
2022/06/02 10:31:02;;;;;;;3.30;3.00;;;;;;;22.21;48.90;99207.80;2290063;77;20953;-82
2022/06/02 10:34:03;;;;;;;4.42;3.08;;;;;;;22.35;47.29;99209.18;2289399;77;22006;-83
2022/06/02 10:37:03;;;;;;;3.47;3.22;;;;;;;21.66;48.50;99215.53;2289324;77;20949;-80
2022/06/02 10:40:03;;;;;;;5.05;3.62;;;;;;;21.49;48.40;99208.89;2289406;77;20953;-83
2022/06/02 10:43:04;;;;;;;3.27;3.08;;;;;;;21.74;48.32;99213.57;2289014;77;21435;-82
2022/06/02 10:46:04;;;;;;;2.90;2.60;;;;;;;21.93;48.24;99210.36;2288803;77;20929;-81
2022/06/02 10:49:05;;;;;;;2.58;2.10;;;;;;;22.15;47.30;99209.77;2251205;77;21079;-81
2022/06/02 10:52:07;;;;;;;2.50;2.30;;;;;;;22.62;45.36;99212.36;2226838;80;21026;-81
2022/06/02 10:55:07;;;;;;;2.62;2.33;;;;;;;22.94;44.00;99219.36;2187465;80;20975;-80
2022/06/02 10:58:08;;;;;;;1.92;1.65;;;;;;;23.34;44.42;99220.23;2224936;80;21035;-82
2022/06/02 11:01:08;;;;;;;1.90;1.80;;;;;;;23.47;42.59;99220.26;2226185;80;20991;-81
2022/06/02 11:04:08;;;;;;;2.20;2.00;;;;;;;23.74;41.90;99210.92;2226178;80;21395;-80
2022/06/02 11:07:09;;;;;;;1.92;1.80;;;;;;;23.95;41.28;99211.94;2226975;80;21397;-82
2022/06/02 11:10:09;;;;;;;14.80;2.30;;;;;;;24.15;40.23;99208.07;2227322;80;20959;-82
2022/06/02 11:13:12;;;;;;;3.22;2.58;;;;;;;23.92;40.65;99222.72;2224548;79;21472;-81
2022/06/02 11:16:17;;;;;;;1.80;1.70;;;;;;;23.88;39.28;99223.29;2224921;80;20935;-83
2022/06/02 11:19:22;;;;;;;1.80;1.70;;;;;;;23.82;39.38;99226.17;2184119;80;20975;-81
2022/06/02 11:22:22;;;;;;;3.20;2.05;;;;;;;24.00;39.82;99220.64;2186094;80;21492;-82
2022/06/02 11:25:22;;;;;;;1.80;1.70;;;;;;;23.97;39.04;99228.29;2225563;80;20947;-82
2022/06/02 11:28:23;;;;;;;5.30;2.22;;;;;;;24.04;38.76;99234.27;2226673;80;21373;-82
2022/06/02 11:31:23;;;;;;;1.72;1.62;;;;;;;23.97;39.30;99230.95;2225609;80;21058;-81
2022/06/02 11:34:24;;;;;;;1.72;1.62;;;;;;;24.25;39.50;99216.59;2225744;80;20983;-79
2022/06/02 11:37:24;;;;;;;1.77;1.67;;;;;;;24.51;39.20;99220.53;2226324;80;20943;-80
2022/06/02 11:40:24;;;;;;;1.87;1.65;;;;;;;24.56;38.59;99218.56;2225640;80;21235;-80
2022/06/02 11:43:26;;;;;;;1.70;1.60;;;;;;;24.35;39.73;99220.72;2226047;80;21379;-79
2022/06/02 11:46:25;;;;;;;1.52;1.42;;;;;;;23.98;38.66;99223.83;2223684;80;21070;-80
2022/06/02 11:49:26;;;;;;;1.87;1.77;;;;;;;23.32;40.03;99235.41;2259741;78;21029;-81
2022/06/02 11:52:26;;;;;;;3.83;1.67;;;;;;;22.91;40.55;99230.56;2278741;78;21057;-81
2022/06/02 11:55:26;;;;;;;1.87;1.72;;;;;;;22.90;40.80;99232.81;2277808;78;21345;-79
2022/06/02 11:58:27;;;;;;;2.30;2.08;;;;;;;23.05;40.13;99234.98;2277205;78;21033;-80
2022/06/02 12:01:27;;;;;;;2.52;1.50;;;;;;;23.22;40.08;99225.98;2277049;77;21329;-79
2022/06/02 12:04:31;;;;;;;1.65;1.52;;;;;;;23.56;40.43;99228.43;2276755;78;20986;-80
2022/06/02 12:07:31;;;;;;;1.80;1.52;;;;;;;24.30;39.43;99218.70;2275419;77;20980;-78
2022/06/02 12:10:31;;;;;;;2.20;1.60;;;;;;;24.49;36.70;99218.39;2274932;78;20973;-77
2022/06/02 12:13:32;;;;;;;1.35;1.27;;;;;;;24.74;36.78;99215.63;2274980;78;20990;-79
2022/06/02 12:16:32;;;;;;;2.83;1.87;;;;;;;24.09;35.57;99227.84;2275077;77;21415;-78
2022/06/02 12:19:32;;;;;;;2.40;1.60;;;;;;;23.50;36.97;99229.94;2274505;78;21303;-78
2022/06/02 12:22:33;;;;;;;1.70;1.60;;;;;;;23.00;36.93;99231.59;2275065;78;21026;-77
2022/06/02 12:25:33;;;;;;;1.60;1.50;;;;;;;23.07;37.64;99233.14;2275113;77;21412;-78
2022/06/02 12:28:34;;;;;;;3.33;1.30;;;;;;;23.25;37.56;99222.34;2276128;78;20977;-79
2022/06/02 12:31:35;;;;;;;6.40;1.60;;;;;;;23.38;34.34;99232.98;2277107;77;20962;-79
2022/06/02 12:34:34;;;;;;;1.92;1.42;;;;;;;23.27;34.66;99243.13;2278233;77;21057;-79
2022/06/02 12:37:35;;;;;;;2.50;1.10;;;;;;;22.79;34.26;99241.11;2278125;78;20949;-79
2022/06/02 12:40:35;;;;;;;3.90;1.32;;;;;;;22.48;36.00;99240.69;2277477;78;20986;-78
2022/06/02 12:43:36;;;;;;;2.65;1.45;;;;;;;22.52;34.95;99240.13;2276764;77;21420;-79
2022/06/02 12:46:36;;;;;;;0.95;0.95;;;;;;;22.47;34.19;99240.73;2277860;77;21064;-79
2022/06/02 12:49:36;;;;;;;1.75;1.20;;;;;;;22.54;35.08;99241.86;2283795;77;21040;-79
2022/06/02 12:52:37;;;;;;;7.37;1.47;;;;;;;22.76;34.79;99240.73;2287266;77;20993;-79
2022/06/02 12:55:37;;;;;;;1.25;1.20;;;;;;;22.84;33.57;99262.70;2286851;77;21053;-81
2022/06/02 12:58:38;;;;;;;4.67;1.17;;;;;;;22.79;33.81;99249.95;2288430;77;21562;-81
2022/06/02 13:01:38;;;;;;;1.42;1.17;;;;;;;22.77;33.50;99250.47;2288177;77;20938;-80
2022/06/02 13:04:38;;;;;;;2.33;1.07;;;;;;;22.80;32.70;99250.86;2288795;77;20989;-81
2022/06/02 13:07:39;;;;;;;1.98;1.32;;;;;;;22.86;32.98;99254.20;2288439;77;20958;-81
2022/06/02 13:10:39;;;;;;;1.05;0.90;;;;;;;22.95;33.48;99246.84;2288259;77;21040;-81
2022/06/02 13:13:40;;;;;;;1.77;0.80;;;;;;;23.05;32.89;99241.64;2288252;77;20986;-81
2022/06/02 13:16:40;;;;;;;6.47;1.52;;;;;;;22.95;32.34;99240.19;2288222;77;20984;-81
2022/06/02 13:19:46;;;;;;;1.20;1.00;;;;;;;22.91;31.47;99245.20;2287777;77;21029;-80
2022/06/02 13:22:41;;;;;;;1.55;1.00;;;;;;;22.75;32.07;99245.66;2285326;77;21333;-80
2022/06/02 13:25:41;;;;;;;1.17;1.10;;;;;;;22.67;33.50;99247.67;2287200;77;20984;-80
2022/06/02 13:28:43;;;;;;;2.08;0.90;;;;;;;22.75;33.74;99246.11;2287934;77;21615;-79
2022/06/02 13:31:42;;;;;;;1.07;1.00;;;;;;;22.82;32.12;99257.02;2287723;77;20993;-80
2022/06/02 13:34:42;;;;;;;6.83;1.00;;;;;;;22.70;29.92;99252.91;2288411;77;21048;-80
2022/06/02 13:37:43;;;;;;;2.08;1.07;;;;;;;22.53;29.21;99248.52;2287125;77;20973;-80
2022/06/02 13:40:43;;;;;;;3.17;0.95;;;;;;;22.53;29.67;99249.86;2287169;77;20948;-80
2022/06/02 13:43:44;;;;;;;0.70;0.70;;;;;;;22.53;28.45;99244.53;2287538;77;21014;-80
2022/06/02 13:46:44;;;;;;;1.65;0.93;;;;;;;22.59;27.77;99248.38;2287360;77;21029;-82
2022/06/02 13:49:44;;;;;;;2.47;0.68;;;;;;;22.75;29.09;99244.78;2295397;77;20973;-79
2022/06/02 13:52:45;;;;;;;1.57;0.80;;;;;;;22.85;28.99;99245.80;2301260;77;21474;-80
2022/06/02 13:59:04;;;;;;;1.60;0.90;;;;;;;22.95;30.60;99253.50;2302463;77;20968;-80
2022/06/02 14:02:04;;;;;;;3.58;1.45;;;;;;;23.05;30.03;99251.83;2303164;77;20999;-80
2022/06/02 14:05:05;;;;;;;2.67;1.07;;;;;;;23.05;30.19;99252.28;2303649;77;20961;-80
2022/06/02 14:08:05;;;;;;;2.80;0.80;;;;;;;23.01;30.91;99247.98;2303464;77;20961;-80
2022/06/02 14:11:05;;;;;;;0.93;0.82;;;;;;;23.10;29.81;99255.67;2303571;77;21028;-80
2022/06/02 14:14:06;;;;;;;1.02;0.93;;;;;;;23.14;30.14;99255.52;2304234;77;20996;-81
2022/06/02 14:17:06;;;;;;;2.08;1.00;;;;;;;23.08;30.02;99256.18;2303495;77;20956;-79
2022/06/02 14:20:07;;;;;;;1.10;0.90;;;;;;;23.19;31.54;99259.36;2304064;77;21357;-80
2022/06/02 14:23:07;;;;;;;1.65;0.93;;;;;;;23.03;31.34;99265.65;2304063;77;20976;-80